Time;durP1;ratioP1;P1;durP2;ratioP2;P2;SDS_P1;SDS_P2;PMS_P1;PMS_P2;Temp;Humidity;BMP_temperature;BMP_pressure;BME280_temperature;BME280_humidity;BME280_pressure;Samples;Min_cycle;Max_cycle;Signal;HPM_P1;HPM_P2
2022/08/20 00:00:07;;;;;;;9.82;8.88;;;;;;;24.90;37.96;100334.94;5036384;28;20100;-73
2022/08/20 00:02:55;;;;;;;9.50;8.52;;;;;;;24.87;37.39;100342.25;5034741;28;20099;-73
2022/08/20 00:05:27;;;;;;;9.50;8.70;;;;;;;24.92;37.54;100355.34;5036410;28;20053;-73
2022/08/20 00:07:54;;;;;;;9.82;8.85;;;;;;;24.93;37.90;100366.41;5015656;28;20049;-73
2022/08/20 00:10:22;;;;;;;9.95;8.95;;;;;;;24.87;37.66;100352.84;5014324;28;20127;-73
2022/08/20 00:12:50;;;;;;;11.07;8.85;;;;;;;24.73;37.98;100325.69;5015581;28;20049;-73
2022/08/20 00:15:21;;;;;;;10.05;9.18;;;;;;;24.86;37.70;100342.63;5015251;28;20498;-73
2022/08/20 00:17:49;;;;;;;9.10;8.38;;;;;;;24.91;37.57;100343.13;5015743;28;20073;-73
2022/08/20 00:20:19;;;;;;;8.23;7.53;;;;;;;25.01;37.81;100335.94;5014071;28;20089;-71
2022/08/20 00:22:47;;;;;;;8.05;7.38;;;;;;;24.85;37.39;100312.41;5049098;28;20084;-73
2022/08/20 00:25:14;;;;;;;8.15;7.45;;;;;;;24.55;36.64;100238.94;5055201;28;20424;-72
2022/08/20 00:27:41;;;;;;;9.40;7.28;;;;;;;25.20;36.50;100343.63;5054659;28;20080;-72
2022/08/20 00:30:11;;;;;;;7.82;7.05;;;;;;;25.10;36.38;100318.53;5054727;28;20167;-73
2022/08/20 00:32:47;;;;;;;7.82;7.13;;;;;;;25.28;36.17;100316.78;5055058;28;20057;-74
2022/08/20 00:35:16;;;;;;;7.53;7.03;;;;;;;25.08;35.62;100278.91;5054872;28;20045;-73
2022/08/20 00:37:43;;;;;;;8.25;7.40;;;;;;;25.39;35.50;100322.63;5054429;28;20075;-74
2022/08/20 00:40:13;;;;;;;14.65;8.25;;;;;;;25.51;36.30;100339.56;5035100;28;20121;-72
2022/08/20 00:42:51;;;;;;;11.52;10.57;;;;;;;25.44;36.41;100346.00;5034408;28;20596;-74
2022/08/20 00:45:19;;;;;;;10.13;9.32;;;;;;;25.01;36.69;100291.03;5034712;28;20552;-74
2022/08/20 00:47:46;;;;;;;10.88;9.98;;;;;;;25.14;37.49;100325.97;5034424;28;20041;-74
2022/08/20 00:50:27;;;;;;;9.77;9.18;;;;;;;25.06;37.27;100330.72;5034461;28;20160;-74
2022/08/20 00:52:55;;;;;;;10.32;9.38;;;;;;;24.92;37.12;100319.03;5034602;28;20053;-74
2022/08/20 00:55:24;;;;;;;8.88;8.07;;;;;;;24.83;37.49;100307.91;5033986;28;20053;-73
2022/08/20 00:58:01;;;;;;;9.18;8.48;;;;;;;24.71;36.81;100290.97;5034686;28;20054;-73
2022/08/20 01:00:36;;;;;;;8.85;8.07;;;;;;;24.99;36.96;100330.63;5034406;28;20211;-73
2022/08/20 01:03:08;;;;;;;12.20;11.30;;;;;;;24.87;36.42;100301.44;5034526;28;20119;-73
2022/08/20 01:05:40;;;;;;;8.82;8.10;;;;;;;24.96;36.37;100317.09;5034471;28;20049;-73
2022/08/20 01:08:08;;;;;;;10.23;9.40;;;;;;;24.81;36.37;100292.34;5032271;28;20049;-73
2022/08/20 01:10:40;;;;;;;11.77;9.32;;;;;;;25.09;36.23;100326.25;5033895;28;20046;-73
2022/08/20 01:13:10;;;;;;;11.02;10.07;;;;;;;25.13;36.59;100332.91;5045185;28;20045;-72
2022/08/20 01:15:40;;;;;;;9.13;8.43;;;;;;;25.15;36.93;100323.94;5049224;28;20108;-73
2022/08/20 01:18:12;;;;;;;9.65;8.65;;;;;;;25.11;36.84;100317.31;5032681;28;20077;-72
2022/08/20 01:20:45;;;;;;;10.63;9.07;;;;;;;25.11;37.45;100323.03;5033734;28;20091;-73
2022/08/20 01:23:33;;;;;;;8.80;8.00;;;;;;;25.04;37.71;100315.16;5033662;28;20139;-73
2022/08/20 01:26:15;;;;;;;11.70;8.27;;;;;;;25.01;38.05;100316.75;5033668;28;20053;-73
2022/08/20 01:28:47;;;;;;;9.55;8.65;;;;;;;24.67;37.79;100260.72;5033606;28;20095;-72
2022/08/20 01:31:18;;;;;;;9.30;8.55;;;;;;;25.00;38.04;100317.97;5013919;28;20081;-72
2022/08/20 01:33:47;;;;;;;9.60;8.75;;;;;;;24.76;37.89;100278.41;5013849;28;20046;-73
2022/08/20 01:36:17;;;;;;;10.73;8.88;;;;;;;24.98;37.82;100316.69;5018258;28;20572;-72
2022/08/20 01:38:44;;;;;;;;;;;;;;;24.74;38.07;100321.63;5034076;28;20548;-72
2022/08/20 01:41:29;;;;;;;12.32;8.65;;;;;;;24.63;39.12;100316.94;5033721;28;19932;-72
2022/08/20 01:43:56;;;;;;;10.25;9.00;;;;;;;24.42;39.76;100308.84;5033532;28;20054;-74
2022/08/20 01:46:28;;;;;;;9.57;8.82;;;;;;;24.23;39.65;100284.81;5033993;28;20057;-73
2022/08/20 01:48:56;;;;;;;10.73;9.55;;;;;;;24.38;39.38;100308.75;5033398;28;20041;-74
2022/08/20 01:51:28;;;;;;;10.45;9.68;;;;;;;24.20;39.89;100291.28;5033504;28;20053;-73
2022/08/20 01:53:58;;;;;;;10.57;9.82;;;;;;;24.22;39.90;100308.03;5048501;28;20081;-72
2022/08/20 01:56:29;;;;;;;10.98;10.07;;;;;;;24.14;40.08;100318.50;5033229;28;20077;-72
2022/08/20 01:59:01;;;;;;;10.75;9.75;;;;;;;23.62;40.45;100234.31;5033089;28;20546;-74
2022/08/20 02:01:31;;;;;;;11.27;10.25;;;;;;;24.08;40.45;100315.13;5033476;28;20103;-72
2022/08/20 02:04:12;;;;;;;10.07;9.25;;;;;;;23.77;40.09;100267.66;5045206;28;20060;-72
2022/08/20 02:06:44;;;;;;;10.35;8.25;;;;;;;24.09;40.11;100311.06;5053189;28;20102;-72
2022/08/20 02:09:24;;;;;;;9.77;8.85;;;;;;;24.16;40.13;100310.38;5053283;28;20126;-72
2022/08/20 02:11:52;;;;;;;9.70;8.77;;;;;;;23.97;39.64;100282.72;5053189;28;20102;-73
2022/08/20 02:14:19;;;;;;;9.60;8.80;;;;;;;24.09;39.48;100301.69;5034490;28;20104;-73
2022/08/20 02:16:46;;;;;;;9.75;8.82;;;;;;;24.12;39.46;100289.50;5032805;28;20058;-73
2022/08/20 02:19:41;;;;;;;10.23;9.35;;;;;;;24.24;39.72;100315.03;5033080;28;20131;-73
2022/08/20 02:22:23;;;;;;;9.07;8.32;;;;;;;24.25;39.41;100307.28;5051933;28;20350;-73
2022/08/20 02:24:50;;;;;;;9.23;8.43;;;;;;;24.17;40.36;100309.19;5044003;28;20099;-74
2022/08/20 02:27:17;;;;;;;9.00;8.18;;;;;;;24.17;40.25;100309.19;5031878;28;20049;-73
2022/08/20 02:29:45;;;;;;;8.30;7.40;;;;;;;24.00;39.96;100290.53;5032576;28;20132;-73
2022/08/20 02:32:12;;;;;;;9.38;8.48;;;;;;;24.01;39.91;100306.44;5031483;28;20568;-73
2022/08/20 02:35:01;;;;;;;9.40;8.68;;;;;;;24.05;40.43;100310.16;5032700;28;20589;-72
2022/08/20 02:37:28;;;;;;;;;;;;;;;24.00;40.52;100306.78;5039441;28;20118;-73
2022/08/20 02:39:55;;;;;;;8.85;7.72;;;;;;;23.95;39.89;100290.81;5039277;28;19925;-72
2022/08/20 02:42:22;;;;;;;9.52;8.48;;;;;;;23.60;39.98;100246.13;5032511;28;20049;-72
2022/08/20 02:44:49;;;;;;;8.85;7.93;;;;;;;23.54;39.89;100232.53;5032816;28;20081;-73
2022/08/20 02:47:16;;;;;;;8.23;7.53;;;;;;;24.06;39.73;100305.28;5032743;28;20045;-73
2022/08/20 02:49:43;;;;;;;9.45;8.60;;;;;;;24.08;39.96;100300.03;5032405;28;20072;-73
2022/08/20 02:52:10;;;;;;;9.50;8.15;;;;;;;24.22;39.88;100316.59;5032458;28;20088;-73
2022/08/20 02:54:37;;;;;;;8.20;7.60;;;;;;;23.77;40.29;100266.84;5039531;28;20513;-73
2022/08/20 02:57:04;;;;;;;8.95;7.93;;;;;;;23.73;40.55;100272.47;5052357;28;20096;-72
2022/08/20 02:59:31;;;;;;;8.82;8.05;;;;;;;23.97;40.68;100316.13;5052601;28;20069;-72
2022/08/20 03:01:58;;;;;;;9.82;8.68;;;;;;;23.91;40.67;100317.63;5052802;28;20478;-73
2022/08/20 03:04:29;;;;;;;9.05;8.13;;;;;;;23.85;40.43;100303.66;5052813;28;20045;-72
2022/08/20 03:06:58;;;;;;;9.02;8.30;;;;;;;23.92;40.13;100305.00;5052374;28;20076;-72
2022/08/20 03:09:25;;;;;;;9.90;9.10;;;;;;;23.90;40.74;100316.81;5052619;28;20095;-72
2022/08/20 03:11:53;;;;;;;8.15;7.55;;;;;;;23.67;41.07;100285.34;5051778;28;20413;-73
2022/08/20 03:14:20;;;;;;;10.98;9.95;;;;;;;23.40;41.03;100259.53;5033410;28;20556;-73
2022/08/20 03:16:46;;;;;;;9.30;8.63;;;;;;;23.47;41.43;100292.25;5032707;28;20073;-73
2022/08/20 03:19:13;;;;;;;9.38;8.48;;;;;;;23.49;42.12;100306.97;5032922;28;20042;-73
2022/08/20 03:21:40;;;;;;;9.57;8.60;;;;;;;23.31;42.41;100306.53;5032697;28;20096;-73
2022/08/20 03:24:08;;;;;;;10.85;8.40;;;;;;;23.23;42.94;100310.44;5032669;28;20400;-73
2022/08/20 03:26:36;;;;;;;9.52;8.68;;;;;;;22.87;42.77;100264.84;5032460;28;20049;-73
2022/08/20 03:29:03;;;;;;;12.25;10.63;;;;;;;23.09;43.08;100299.56;5042687;28;20083;-73
2022/08/20 03:31:30;;;;;;;10.18;9.30;;;;;;;22.90;42.80;100264.09;5052196;28;20045;-73
2022/08/20 03:33:57;;;;;;;10.40;9.32;;;;;;;23.23;43.00;100319.81;5036095;28;20057;-73
2022/08/20 03:36:25;;;;;;;11.13;10.13;;;;;;;22.92;42.63;100256.03;5012398;28;20128;-72
2022/08/20 03:39:00;;;;;;;10.05;9.05;;;;;;;23.09;42.64;100280.44;5016171;28;20128;-73
2022/08/20 03:41:27;;;;;;;10.40;9.30;;;;;;;22.88;43.13;100272.19;5016134;28;20073;-72
2022/08/20 03:43:54;;;;;;;10.00;9.02;;;;;;;23.15;43.10;100315.16;5016041;28;20049;-73
2022/08/20 03:46:21;;;;;;;11.05;10.05;;;;;;;22.75;43.66;100250.72;5030358;28;20073;-73
2022/08/20 03:48:53;;;;;;;9.75;8.90;;;;;;;22.70;43.34;100254.69;5035669;28;20555;-73
2022/08/20 03:51:30;;;;;;;9.70;8.63;;;;;;;22.97;43.87;100288.28;5034768;28;20060;-72
2022/08/20 03:54:17;;;;;;;8.95;8.43;;;;;;;22.91;43.28;100293.41;5035388;28;20497;-73
2022/08/20 03:56:43;;;;;;;10.02;9.23;;;;;;;23.00;43.47;100302.59;5035698;28;20076;-72
2022/08/20 03:59:10;;;;;;;9.30;8.40;;;;;;;23.07;43.08;100299.09;5035394;28;20046;-73
2022/08/20 04:01:37;;;;;;;10.30;9.38;;;;;;;23.09;43.32;100293.84;5035487;28;20555;-73
2022/08/20 04:04:13;;;;;;;9.20;8.40;;;;;;;22.86;43.11;100245.28;5015753;28;20053;-73
2022/08/20 04:06:41;;;;;;;8.48;7.65;;;;;;;22.88;42.78;100240.88;5015483;28;20049;-73
2022/08/20 04:09:09;;;;;;;9.40;8.70;;;;;;;23.20;43.32;100289.22;5015840;28;20049;-73
2022/08/20 04:11:38;;;;;;;12.05;9.30;;;;;;;22.78;43.36;100221.53;5015495;28;20553;-72
2022/08/20 04:14:06;;;;;;;13.75;10.77;;;;;;;23.39;42.66;100297.78;5031893;28;20088;-73
2022/08/20 04:16:35;;;;;;;9.03;8.30;;;;;;;23.40;42.76;100293.75;5035381;28;20413;-73
2022/08/20 04:19:03;;;;;;;11.02;10.23;;;;;;;23.33;42.75;100265.09;5035610;28;20317;-72
2022/08/20 04:21:31;;;;;;;12.15;11.02;;;;;;;23.45;42.71;100284.06;5035007;28;20095;-72
2022/08/20 04:24:01;;;;;;;9.43;8.73;;;;;;;22.90;42.52;100206.31;5034973;28;20104;-72
2022/08/20 04:26:28;;;;;;;9.70;9.02;;;;;;;23.28;43.16;100268.25;5035287;28;20056;-73
2022/08/20 04:28:56;;;;;;;12.43;11.18;;;;;;;22.83;43.45;100197.63;5034715;28;20073;-72
2022/08/20 04:31:32;;;;;;;10.45;9.45;;;;;;;23.24;43.35;100277.91;5035228;28;20053;-72
2022/08/20 04:34:06;;;;;;;11.85;10.15;;;;;;;23.25;43.26;100291.78;5035127;28;20049;-73
2022/08/20 04:36:34;;;;;;;14.50;10.50;;;;;;;22.60;43.26;100197.53;5041630;28;20052;-73
2022/08/20 04:39:01;;;;;;;11.10;10.20;;;;;;;23.04;43.67;100294.97;5054867;28;20080;-73
2022/08/20 04:41:28;;;;;;;12.75;9.95;;;;;;;23.05;43.98;100299.47;5054598;28;20551;-73
2022/08/20 04:43:57;;;;;;;10.88;9.88;;;;;;;22.91;44.46;100299.94;5054379;28;20103;-73
2022/08/20 04:46:27;;;;;;;11.00;9.90;;;;;;;22.65;44.56;100285.47;5054811;28;20049;-73
2022/08/20 04:48:55;;;;;;;10.52;9.63;;;;;;;22.68;44.89;100308.31;5053605;28;20497;-73
2022/08/20 04:51:22;;;;;;;11.45;10.45;;;;;;;22.72;45.06;100319.78;5054632;28;20048;-73
2022/08/20 04:53:52;;;;;;;11.23;10.18;;;;;;;22.69;45.37;100332.72;5053483;28;20045;-73
2022/08/20 04:56:26;;;;;;;10.90;9.90;;;;;;;22.55;45.76;100332.38;5054457;28;20055;-72
2022/08/20 04:58:59;;;;;;;10.05;9.40;;;;;;;22.48;45.74;100326.50;5054712;28;20399;-72
2022/08/20 05:01:26;;;;;;;11.77;10.65;;;;;;;22.38;45.93;100316.47;5054722;28;20122;-72
2022/08/20 05:03:55;;;;;;;11.13;10.18;;;;;;;22.41;45.66;100327.13;5054445;28;20493;-73
2022/08/20 05:06:30;;;;;;;12.50;10.57;;;;;;;22.34;45.54;100321.25;5054195;28;20056;-73
2022/08/20 05:08:59;;;;;;;10.95;10.05;;;;;;;22.37;45.49;100326.22;5054014;28;20071;-73
2022/08/20 05:11:27;;;;;;;10.80;10.02;;;;;;;22.38;45.60;100333.56;5053115;28;20085;-73
2022/08/20 05:14:10;;;;;;;11.75;10.82;;;;;;;22.34;45.93;100326.94;5036603;28;20059;-73
2022/08/20 05:16:39;;;;;;;11.95;11.05;;;;;;;22.05;45.66;100278.97;5033921;28;20081;-72
2022/08/20 05:19:11;;;;;;;12.00;11.13;;;;;;;22.37;45.89;100331.91;5049240;28;20099;-73
2022/08/20 05:21:39;;;;;;;10.13;9.23;;;;;;;22.28;45.79;100319.03;5033945;28;20089;-73
2022/08/20 05:24:06;;;;;;;10.57;9.68;;;;;;;22.01;45.90;100287.41;5034118;28;20050;-72
2022/08/20 05:26:34;;;;;;;10.40;9.70;;;;;;;21.94;46.61;100279.53;5033778;28;20057;-72
2022/08/20 05:29:03;;;;;;;11.23;10.23;;;;;;;22.29;46.29;100341.47;5034399;28;20060;-72
2022/08/20 05:31:32;;;;;;;11.40;10.43;;;;;;;22.43;45.80;100353.22;5033801;28;20046;-72
2022/08/20 05:34:01;;;;;;;12.52;11.35;;;;;;;22.38;45.88;100327.03;5033688;28;20107;-73
2022/08/20 05:36:28;;;;;;;11.05;10.25;;;;;;;22.13;46.04;100317.81;5033710;28;20425;-72
2022/08/20 05:38:55;;;;;;;11.02;10.15;;;;;;;22.32;46.40;100352.06;5033665;28;20468;-72
2022/08/20 05:41:22;;;;;;;10.98;9.90;;;;;;;22.13;46.37;100338.53;5033813;28;20084;-72
2022/08/20 05:43:58;;;;;;;9.88;9.15;;;;;;;22.22;46.10;100346.94;5033980;28;20488;-73
2022/08/20 05:46:25;;;;;;;9.95;8.95;;;;;;;22.15;46.63;100352.41;5033449;28;20494;-71
2022/08/20 05:48:52;;;;;;;9.35;8.70;;;;;;;22.26;46.31;100369.78;5033413;28;20099;-74
2022/08/20 05:51:19;;;;;;;10.50;9.70;;;;;;;22.19;46.75;100354.19;5033350;28;20077;-73
2022/08/20 05:53:46;;;;;;;10.85;9.80;;;;;;;22.14;46.78;100353.59;5033286;28;20050;-72
2022/08/20 05:56:13;;;;;;;11.52;10.40;;;;;;;21.85;46.82;100321.53;5032468;28;20496;-72
2022/08/20 05:58:40;;;;;;;15.25;14.13;;;;;;;22.17;46.74;100375.66;5033415;28;20054;-73
2022/08/20 06:01:07;;;;;;;11.90;10.77;;;;;;;22.19;46.84;100387.50;5036638;28;20099;-73
2022/08/20 06:06:19;;;;;;;12.38;11.38;;;;;;;22.10;47.36;100401.00;5053549;28;20099;-72
2022/08/20 06:09:06;;;;;;;11.52;10.38;;;;;;;21.91;47.49;100388.28;5052905;28;20053;-71
2022/08/20 06:11:33;;;;;;;11.68;10.68;;;;;;;21.97;47.47;100403.91;5051753;28;20045;-72
2022/08/20 06:14:04;;;;;;;12.05;10.95;;;;;;;21.91;47.83;100404.50;5047973;28;20140;-72
2022/08/20 06:16:31;;;;;;;11.60;10.60;;;;;;;21.74;47.79;100397.97;5013415;28;20050;-72
2022/08/20 06:18:58;;;;;;;12.10;10.68;;;;;;;21.75;48.33;100410.97;5034520;28;20138;-73
2022/08/20 06:21:28;;;;;;;11.88;10.82;;;;;;;21.80;48.54;100412.72;5052800;28;20497;-73
2022/08/20 06:23:55;;;;;;;13.38;10.82;;;;;;;21.87;48.14;100414.94;5052664;28;20056;-72
2022/08/20 06:26:26;;;;;;;12.25;11.15;;;;;;;21.67;48.05;100359.94;5052710;28;20098;-73
2022/08/20 06:29:00;;;;;;;12.35;11.10;;;;;;;22.03;48.00;100401.63;5052517;28;20057;-73
2022/08/20 06:31:28;;;;;;;12.57;11.30;;;;;;;22.18;47.87;100403.72;5052582;28;20079;-72
2022/08/20 06:33:55;;;;;;;12.55;11.40;;;;;;;21.99;47.77;100375.94;5052560;28;20056;-73
2022/08/20 06:36:23;;;;;;;12.45;11.45;;;;;;;22.35;48.25;100431.00;5052059;28;20053;-72
2022/08/20 06:38:50;;;;;;;11.93;10.85;;;;;;;22.29;48.42;100415.41;5046007;28;20111;-74
2022/08/20 06:41:17;;;;;;;15.20;12.82;;;;;;;22.32;48.48;100419.53;5033157;28;20049;-72
2022/08/20 06:43:45;;;;;;;16.50;12.88;;;;;;;22.45;48.79;100423.97;5032981;28;20449;-72
2022/08/20 06:46:13;;;;;;;11.85;10.77;;;;;;;22.66;48.31;100423.72;5032821;28;20049;-72
2022/08/20 06:48:40;;;;;;;12.90;11.30;;;;;;;22.89;47.76;100426.78;5036838;28;20391;-72
2022/08/20 06:51:08;;;;;;;12.20;11.10;;;;;;;23.10;47.66;100433.03;5037319;28;20073;-73
2022/08/20 06:53:35;;;;;;;14.90;13.70;;;;;;;23.25;47.64;100425.69;5033300;28;20049;-72
2022/08/20 06:56:03;;;;;;;13.88;12.00;;;;;;;22.87;47.51;100326.66;5032397;28;20641;-73
2022/08/20 06:58:31;;;;;;;13.23;10.98;;;;;;;23.46;47.87;100408.28;5032791;28;20421;-73
2022/08/20 07:01:07;;;;;;;14.30;10.68;;;;;;;23.38;47.55;100353.16;5032309;28;20506;-73
2022/08/20 07:03:39;;;;;;;14.00;10.10;;;;;;;23.41;47.16;100343.81;5032346;28;20076;-74
2022/08/20 07:06:21;;;;;;;14.20;10.50;;;;;;;23.79;46.53;100375.63;5032721;28;20119;-73
2022/08/20 07:08:48;;;;;;;13.60;12.18;;;;;;;24.13;46.49;100422.38;5033276;28;20116;-74
2022/08/20 07:11:15;;;;;;;12.02;10.93;;;;;;;24.31;46.35;100420.75;5032435;28;20127;-73
2022/08/20 07:13:42;;;;;;;11.68;10.57;;;;;;;24.54;45.91;100422.81;5035899;28;20061;-73
2022/08/20 07:16:09;;;;;;;12.93;11.63;;;;;;;24.72;45.34;100409.72;5036440;28;20544;-73
2022/08/20 07:18:36;;;;;;;10.88;10.00;;;;;;;24.94;45.07;100413.75;5036138;28;20072;-74
2022/08/20 07:21:03;;;;;;;10.95;9.60;;;;;;;25.21;44.62;100403.22;5036353;28;20053;-74
2022/08/20 07:23:30;;;;;;;12.10;10.68;;;;;;;25.43;44.57;100398.66;5036129;28;20136;-74
2022/08/20 07:25:57;;;;;;;12.48;10.02;;;;;;;25.60;44.44;100394.41;5037011;28;20133;-74
2022/08/20 07:28:30;;;;;;;10.55;9.57;;;;;;;26.07;44.30;100415.91;5034662;28;20091;-74
2022/08/20 07:33:46;;;;;;;11.68;9.48;;;;;;;26.71;43.42;100421.59;5036414;28;20417;-74
2022/08/20 07:36:16;;;;;;;11.40;10.40;;;;;;;27.00;42.73;100421.84;5035849;28;20045;-74
2022/08/20 07:38:47;;;;;;;10.77;9.75;;;;;;;27.38;42.72;100434.88;5036022;28;20184;-74
2022/08/20 07:41:14;;;;;;;10.88;9.90;;;;;;;27.22;42.18;100372.13;5035808;28;20046;-73
2022/08/20 07:43:44;;;;;;;10.75;9.80;;;;;;;28.10;41.60;100439.88;5036143;28;20081;-73
2022/08/20 07:46:17;;;;;;;13.70;12.18;;;;;;;28.43;41.26;100452.34;5035842;28;20049;-73
2022/08/20 07:48:48;;;;;;;11.57;10.40;;;;;;;28.69;40.41;100453.25;5035738;28;20616;-73
2022/08/20 07:51:21;;;;;;;16.05;10.73;;;;;;;28.99;39.91;100453.72;5035797;28;20045;-73
2022/08/20 07:53:49;;;;;;;12.32;10.20;;;;;;;29.26;39.70;100444.69;5035421;28;20049;-73
2022/08/20 07:56:20;;;;;;;13.82;10.43;;;;;;;29.34;38.96;100434.84;5035488;28;20104;-73
2022/08/20 07:58:51;;;;;;;10.48;9.48;;;;;;;29.61;39.01;100441.00;5035638;28;20391;-73
2022/08/20 08:01:24;;;;;;;10.23;8.90;;;;;;;29.93;38.10;100442.97;5034815;28;20557;-73
2022/08/20 08:03:51;;;;;;;10.70;9.70;;;;;;;30.05;37.74;100430.16;5035500;28;20456;-74
2022/08/20 08:06:20;;;;;;;10.45;9.43;;;;;;;30.29;37.72;100442.84;5035238;28;20088;-73
2022/08/20 08:09:06;;;;;;;11.40;10.38;;;;;;;30.50;37.38;100433.31;5035787;28;20444;-73
2022/08/20 08:11:37;;;;;;;10.13;9.07;;;;;;;30.76;37.23;100457.88;5033999;28;20046;-73
2022/08/20 08:14:07;;;;;;;10.65;9.55;;;;;;;30.73;36.34;100426.97;5034927;28;20045;-73
2022/08/20 08:16:35;;;;;;;13.68;12.07;;;;;;;31.23;36.26;100482.25;5035313;28;20490;-74
2022/08/20 08:19:05;;;;;;;10.03;9.23;;;;;;;31.45;35.71;100470.56;5035891;28;20068;-73
2022/08/20 08:21:32;;;;;;;12.75;9.80;;;;;;;31.52;35.18;100474.22;5035716;28;20267;-74
2022/08/20 08:23:59;;;;;;;13.13;9.63;;;;;;;31.55;34.89;100437.91;5034016;28;20053;-74
2022/08/20 08:26:27;;;;;;;11.15;9.93;;;;;;;31.84;34.64;100464.41;5034937;28;20490;-73
2022/08/20 08:28:56;;;;;;;10.93;9.95;;;;;;;32.06;34.43;100476.56;5034746;28;20060;-74
2022/08/20 08:31:24;;;;;;;11.55;9.57;;;;;;;32.18;34.40;100489.66;5035083;28;20061;-74
2022/08/20 08:33:51;;;;;;;19.25;10.77;;;;;;;32.33;33.82;100489.03;5035718;28;20049;-74
2022/08/20 08:36:18;;;;;;;11.15;10.25;;;;;;;32.26;33.98;100442.91;5035036;28;20099;-74
2022/08/20 08:38:45;;;;;;;16.05;13.82;;;;;;;32.66;33.70;100469.25;5034731;28;20091;-74
2022/08/20 08:41:32;;;;;;;13.95;12.70;;;;;;;32.99;33.37;100475.38;5032790;28;20046;-73
2022/08/20 08:44:30;;;;;;;11.02;9.55;;;;;;;33.08;33.30;100475.66;5034516;28;20052;-74
2022/08/20 08:47:01;;;;;;;16.83;11.63;;;;;;;33.28;32.86;100483.63;5031482;28;20053;-74
2022/08/20 08:49:33;;;;;;;11.50;9.38;;;;;;;33.42;32.71;100486.28;5034473;28;20374;-73
2022/08/20 08:52:10;;;;;;;12.25;11.32;;;;;;;33.18;31.94;100427.56;5035049;28;20053;-74
2022/08/20 08:54:45;;;;;;;13.45;12.20;;;;;;;33.11;31.92;100413.22;5034389;28;20111;-74
2022/08/20 08:57:12;;;;;;;10.75;9.48;;;;;;;33.73;31.70;100496.50;5034418;28;20088;-74
2022/08/20 08:59:40;;;;;;;15.85;11.00;;;;;;;33.85;31.47;100476.88;5034203;28;20510;-74
2022/08/20 09:02:29;;;;;;;11.30;8.80;;;;;;;34.03;31.03;100488.94;5034272;28;20053;-74
2022/08/20 09:05:01;;;;;;;10.07;9.25;;;;;;;33.92;30.79;100450.66;5034277;28;20145;-73
2022/08/20 09:07:32;;;;;;;14.63;10.05;;;;;;;34.35;30.80;100493.25;5034166;28;20053;-74
2022/08/20 09:10:00;;;;;;;17.80;10.05;;;;;;;34.49;30.80;100495.84;5035162;28;20053;-73
2022/08/20 09:12:27;;;;;;;11.15;9.32;;;;;;;34.68;30.71;100494.25;5034509;28;20045;-73
2022/08/20 09:14:54;;;;;;;15.93;9.05;;;;;;;34.53;30.05;100456.06;5033952;28;20679;-73
2022/08/20 09:17:22;;;;;;;18.45;11.80;;;;;;;34.88;30.31;100488.41;5033988;28;20049;-73
2022/08/20 09:19:51;;;;;;;13.85;9.63;;;;;;;34.84;29.70;100487.69;5033940;28;20497;-73
2022/08/20 09:22:24;;;;;;;9.90;8.80;;;;;;;35.01;29.97;100498.09;5034343;28;20128;-73
2022/08/20 09:24:52;;;;;;;9.90;8.60;;;;;;;35.16;29.70;100512.25;5035277;28;20053;-72
2022/08/20 09:27:19;;;;;;;13.05;11.63;;;;;;;34.78;29.53;100428.56;5033746;28;20072;-73
2022/08/20 09:29:46;;;;;;;11.85;9.43;;;;;;;35.28;29.16;100497.00;5033669;28;20061;-73
2022/08/20 09:32:20;;;;;;;13.93;12.60;;;;;;;35.34;29.28;100477.78;5033622;28;20074;-74
2022/08/20 09:34:54;;;;;;;12.25;9.68;;;;;;;35.52;29.45;100491.88;5033032;28;20080;-74
2022/08/20 09:37:24;;;;;;;13.20;12.02;;;;;;;35.60;29.10;100478.81;5033657;28;20060;-74
2022/08/20 09:39:51;;;;;;;15.50;9.35;;;;;;;35.88;28.65;100509.19;5033437;28;20077;-74
2022/08/20 09:42:25;;;;;;;11.00;8.73;;;;;;;36.01;28.07;100501.38;5032937;28;20410;-74
2022/08/20 09:44:53;;;;;;;9.20;8.35;;;;;;;36.11;27.87;100505.25;5048630;28;20087;-73
2022/08/20 09:47:20;;;;;;;11.52;9.00;;;;;;;36.19;27.99;100497.16;5033212;28;20083;-74
2022/08/20 09:49:47;;;;;;;11.30;9.30;;;;;;;36.27;27.50;100501.47;5032141;28;20077;-73
2022/08/20 09:52:21;;;;;;;10.10;9.23;;;;;;;36.21;27.79;100488.81;5033159;28;20494;-74
2022/08/20 09:54:49;;;;;;;11.45;10.35;;;;;;;36.29;27.11;100510.56;5033457;28;20053;-73
2022/08/20 09:57:18;;;;;;;9.77;8.88;;;;;;;36.13;27.10;100467.00;5033623;28;20084;-73
2022/08/20 09:59:47;;;;;;;;;;;;;;;36.12;28.24;100509.78;5031566;28;20060;-74
2022/08/20 10:02:13;;;;;;;9.80;8.65;;;;;;;36.28;27.29;100491.50;5033064;28;20374;-75
2022/08/20 10:04:40;;;;;;;9.05;8.27;;;;;;;36.32;26.98;100471.03;5033075;28;20076;-74
2022/08/20 10:07:08;;;;;;;9.95;8.93;;;;;;;36.53;26.37;100503.22;5033331;28;20054;-75
2022/08/20 10:09:37;;;;;;;12.13;11.02;;;;;;;36.49;26.73;100487.97;5033366;28;20464;-74
2022/08/20 10:12:06;;;;;;;8.82;7.88;;;;;;;36.46;26.84;100497.59;5033286;28;20049;-73
2022/08/20 10:14:32;;;;;;;11.43;9.23;;;;;;;36.48;27.09;100529.09;5048332;28;20084;-73
2022/08/20 10:17:01;;;;;;;12.00;9.50;;;;;;;36.47;26.77;100505.03;5033378;28;20050;-74
2022/08/20 10:19:29;;;;;;;9.88;8.15;;;;;;;36.41;26.63;100501.09;5033278;28;20103;-74
2022/08/20 10:21:57;;;;;;;9.98;8.65;;;;;;;36.38;27.13;100499.09;5032828;28;20099;-74
2022/08/20 10:24:24;;;;;;;12.48;11.50;;;;;;;36.47;27.13;100499.22;5032897;28;20053;-74
2022/08/20 10:26:55;;;;;;;17.80;10.88;;;;;;;36.51;26.98;100504.94;5033102;28;20073;-74
2022/08/20 10:29:22;;;;;;;12.30;9.30;;;;;;;36.41;27.37;100523.50;5032480;28;20073;-74
2022/08/20 10:31:49;;;;;;;14.05;10.43;;;;;;;35.82;27.58;100450.81;5032885;28;20460;-73
2022/08/20 10:34:16;;;;;;;17.65;13.27;;;;;;;36.20;27.72;100522.03;5033612;28;20119;-74
2022/08/20 10:36:43;;;;;;;14.60;9.57;;;;;;;36.26;27.35;100514.38;5032763;28;20140;-74
2022/08/20 10:39:10;;;;;;;12.70;9.73;;;;;;;35.75;27.45;100456.00;5032585;28;20548;-74
2022/08/20 10:41:37;;;;;;;12.93;9.55;;;;;;;36.06;27.81;100526.97;5032566;28;20076;-73
2022/08/20 10:44:05;;;;;;;15.90;9.82;;;;;;;36.06;27.25;100515.34;5032797;28;20141;-74
2022/08/20 10:46:33;;;;;;;13.35;9.90;;;;;;;36.18;27.75;100534.13;5031854;28;20095;-75
2022/08/20 10:49:00;;;;;;;12.15;9.75;;;;;;;36.14;27.52;100545.06;5032542;28;20509;-74
2022/08/20 10:51:27;;;;;;;14.48;11.00;;;;;;;36.04;27.73;100535.34;5033251;28;20042;-74
2022/08/20 10:53:58;;;;;;;12.35;9.55;;;;;;;35.95;27.71;100538.03;5032235;28;20081;-74
2022/08/20 10:56:25;;;;;;;13.13;9.15;;;;;;;35.78;27.37;100522.72;5032884;28;20054;-74
2022/08/20 10:58:52;;;;;;;14.57;10.30;;;;;;;35.79;27.68;100526.44;5023544;28;20049;-73
2022/08/20 11:01:19;;;;;;;12.73;9.95;;;;;;;36.04;27.79;100546.16;5012859;28;20085;-74
2022/08/20 11:03:58;;;;;;;12.15;10.45;;;;;;;35.83;27.94;100486.47;5026618;28;20050;-74
2022/08/20 11:06:25;;;;;;;19.50;10.10;;;;;;;36.24;27.38;100531.47;5012698;28;20049;-75
2022/08/20 11:08:52;;;;;;;15.68;10.35;;;;;;;36.19;27.21;100544.47;5046903;28;20119;-74
2022/08/20 11:11:22;;;;;;;11.05;10.05;;;;;;;36.11;27.73;100527.72;5032304;28;20049;-74
2022/08/20 11:13:51;;;;;;;;;;;;;;;35.91;28.10;100531.53;5032618;28;20132;-73
2022/08/20 11:16:18;;;;;;;11.30;8.82;;;;;;;36.15;27.89;100522.59;5032531;28;19921;-73
2022/08/20 11:18:44;;;;;;;12.85;10.48;;;;;;;36.26;27.37;100494.03;5032218;28;20100;-74
2022/08/20 11:21:13;;;;;;;9.45;8.52;;;;;;;36.73;27.15;100542.97;5032197;28;20099;-74
2022/08/20 11:23:40;;;;;;;9.93;8.85;;;;;;;36.43;26.38;100503.50;5032113;28;20068;-73
2022/08/20 11:26:07;;;;;;;10.82;9.13;;;;;;;36.59;26.56;100544.22;5051358;28;20485;-74
2022/08/20 11:28:34;;;;;;;13.40;9.48;;;;;;;36.64;26.30;100534.09;5052057;28;20080;-73
2022/08/20 11:31:01;;;;;;;13.43;12.05;;;;;;;36.90;26.44;100550.31;5051918;28;20073;-73
2022/08/20 11:33:28;;;;;;;12.35;10.57;;;;;;;36.71;26.22;100491.03;5052022;28;20072;-74